Tall Kayf, Iraq
Current Conditions -  °F | °C
As of 10:00 AM on Monday 24 Nov 2014 (Local Time) from ORER Reporting Station
Few Clouds Few Clouds  
Wind Chill: 57°   Ceiling: Unl
Heat Index: 57°   Visibility: 5mi
Dew Point: 52°   Wind: 3mph
Humidity: 82%   Direction: NA
Pressure: 29.97"   Gusts: NA
Location:  36.48°N, 43.13°E
Report Text: ORER 240700Z VRB03KT 8000 FEW030 14/11 Q1015 NOSIG
Loading
Personal Weather Stations






























Interactive Weather Map New forecast layout! Learn more

10-Day Weather Forecast

Advertisements
Track Severe Weather on mobile